createdAt,value
2022-11-09T00:01:29.503Z,101143.44
2022-11-09T00:04:03.261Z,101139.63
2022-11-09T00:06:33.080Z,101143.22
2022-11-09T00:09:07.344Z,101144.88
2022-11-09T00:11:38.484Z,101138.56
2022-11-09T00:14:06.794Z,101137.25
2022-11-09T00:16:35.204Z,101142.53
2022-11-09T00:19:03.103Z,101139.19
2022-11-09T00:21:31.482Z,101134.53
2022-11-09T00:23:59.544Z,101135.44
2022-11-09T00:26:28.245Z,101137.81
2022-11-09T00:28:56.893Z,101142.66
2022-11-09T00:31:25.520Z,101131.78
2022-11-09T00:33:55.992Z,101131.09
2022-11-09T00:36:27.210Z,101134.63
2022-11-09T00:39:01.287Z,101129.00
2022-11-09T00:41:29.679Z,101125.91
2022-11-09T00:43:57.860Z,101116.13
2022-11-09T00:46:26.640Z,101120.47
2022-11-09T00:48:56.503Z,101122.16
2022-11-09T00:51:28.434Z,101113.81
2022-11-09T00:53:57.644Z,101121.31
2022-11-09T00:56:27.531Z,101121.31
2022-11-09T00:58:56.147Z,101129.78
2022-11-09T01:01:25.499Z,101129.34
2022-11-09T01:03:54.321Z,101133.47
2022-11-09T01:06:26.996Z,101122.72
2022-11-09T01:08:55.615Z,101112.88
2022-11-09T01:11:24.220Z,101116.03
2022-11-09T01:13:55.546Z,101121.41
2022-11-09T01:16:25.476Z,101117.44
2022-11-09T01:18:55.486Z,101112.34
2022-11-09T01:21:28.392Z,101110.63
2022-11-09T01:23:58.641Z,101107.09
2022-11-09T01:26:30.551Z,101110.84
2022-11-09T01:28:58.742Z,101106.00
2022-11-09T01:31:27.465Z,101107.72
2022-11-09T01:33:55.803Z,101114.66
2022-11-09T01:36:25.111Z,101114.09
2022-11-09T01:38:53.847Z,101101.81
2022-11-09T01:41:26.132Z,101101.50
2022-11-09T01:44:13.695Z,101106.88
2022-11-09T01:46:54.226Z,101104.16
2022-11-09T01:49:43.543Z,101089.56
2022-11-09T01:52:40.988Z,101099.22
2022-11-09T01:55:17.520Z,101079.00
2022-11-09T01:58:03.873Z,101068.75
2022-11-09T02:00:34.958Z,101085.16
2022-11-09T02:03:31.584Z,101094.84
2022-11-09T02:06:04.928Z,101106.69
2022-11-09T02:08:33.378Z,101101.63
2022-11-09T02:11:12.641Z,101097.09
2022-11-09T02:13:48.401Z,101096.97
2022-11-09T02:16:17.881Z,101103.53
2022-11-09T02:18:58.959Z,101118.97
2022-11-09T02:21:30.159Z,101113.22
2022-11-09T02:23:59.289Z,101110.84
2022-11-09T02:26:36.528Z,101107.41
2022-11-09T02:29:09.387Z,101109.22
2022-11-09T02:31:42.519Z,101101.13
2022-11-09T02:34:17.819Z,101104.22
2022-11-09T02:36:45.757Z,101099.47
2022-11-09T02:39:25.538Z,101115.16
2022-11-09T02:42:03.618Z,101103.94
2022-11-09T02:44:41.340Z,101104.94
2022-11-09T02:47:09.628Z,101091.44
2022-11-09T02:49:37.939Z,101090.81
2022-11-09T02:52:05.961Z,101086.38
2022-11-09T02:54:34.310Z,101097.44
2022-11-09T02:57:03.307Z,101101.16
2022-11-09T02:59:32.577Z,101113.53
2022-11-09T03:02:01.037Z,101109.41
2022-11-09T03:04:32.466Z,101107.19
2022-11-09T03:07:02.084Z,101110.22
2022-11-09T03:09:32.946Z,101121.59
2022-11-09T03:12:20.738Z,101119.78
2022-11-09T03:14:49.030Z,101117.03
2022-11-09T03:17:18.888Z,101142.22
2022-11-09T03:19:47.116Z,101134.38
2022-11-09T03:22:15.599Z,101120.34
2022-11-09T03:24:48.047Z,101129.19
2022-11-09T03:27:18.038Z,101126.94
2022-11-09T03:29:49.686Z,101142.97
2022-11-09T03:32:17.949Z,101128.56
2022-11-09T03:34:49.429Z,101128.03
2022-11-09T03:37:18.638Z,101136.28
2022-11-09T03:39:46.919Z,101122.53
2022-11-09T03:42:14.759Z,101123.78
2022-11-09T03:44:43.010Z,101130.56
2022-11-09T03:47:10.738Z,101132.03
2022-11-09T03:49:40.060Z,101129.19
2022-11-09T03:52:07.960Z,101128.22
2022-11-09T03:54:37.799Z,101130.41
2022-11-09T03:57:05.677Z,101129.00
2022-11-09T03:59:34.408Z,101127.75
2022-11-09T04:02:02.399Z,101135.94
2022-11-09T04:04:30.450Z,101132.34
2022-11-09T04:06:58.357Z,101138.97
2022-11-09T04:09:26.620Z,101132.03
2022-11-09T04:11:54.511Z,101133.63
2022-11-09T04:14:23.920Z,101131.09
2022-11-09T04:16:51.738Z,101126.84
2022-11-09T04:19:19.938Z,101119.22
2022-11-09T04:21:47.717Z,101129.31
2022-11-09T04:24:16.027Z,101129.63
2022-11-09T04:26:43.768Z,101136.44
2022-11-09T04:29:12.018Z,101129.63
2022-11-09T04:31:40.582Z,101130.28
2022-11-09T04:34:08.958Z,101133.09
2022-11-09T04:36:36.719Z,101125.72
2022-11-09T04:39:04.772Z,101124.75
2022-11-09T04:41:32.548Z,101133.94
2022-11-09T04:44:01.088Z,101132.38
2022-11-09T04:46:29.028Z,101127.78
2022-11-09T04:48:57.179Z,101137.56
2022-11-09T04:51:25.204Z,101119.19
2022-11-09T04:53:54.728Z,101123.03
2022-11-09T04:56:22.668Z,101116.50
2022-11-09T04:58:50.756Z,101123.09
2022-11-09T05:01:18.808Z,101116.22
2022-11-09T05:03:47.060Z,101105.00
2022-11-09T05:06:33.340Z,101110.78
2022-11-09T05:09:06.712Z,101107.88
2022-11-09T05:11:36.468Z,101112.28
2022-11-09T05:14:05.168Z,101117.38
2022-11-09T05:16:33.937Z,101110.72
2022-11-09T05:19:03.866Z,101110.69
2022-11-09T05:21:31.962Z,101115.63
2022-11-09T05:24:00.354Z,101107.09
2022-11-09T05:26:39.997Z,101105.84
2022-11-09T05:29:11.098Z,101100.94
2022-11-09T05:31:40.380Z,101099.47
2022-11-09T05:34:22.910Z,101105.13
2022-11-09T05:36:51.076Z,101103.50
2022-11-09T05:39:18.869Z,101104.16
2022-11-09T05:41:46.956Z,101102.22
2022-11-09T05:44:14.878Z,101100.78
2022-11-09T05:46:43.029Z,101103.81
2022-11-09T05:49:10.858Z,101118.97
2022-11-09T05:51:38.936Z,101111.69
2022-11-09T05:54:07.330Z,101098.28
2022-11-09T05:56:35.720Z,101101.91
2022-11-09T05:59:03.814Z,101108.50
2022-11-09T06:01:34.481Z,101100.25
2022-11-09T06:04:05.458Z,101112.88
2022-11-09T06:06:34.973Z,101103.25
2022-11-09T06:09:03.323Z,101105.50
2022-11-09T06:11:32.461Z,101099.38
2022-11-09T06:14:00.540Z,101104.84
2022-11-09T06:16:29.583Z,101105.97
2022-11-09T06:18:57.661Z,101106.91
2022-11-09T06:21:26.989Z,101107.84
2022-11-09T06:23:55.081Z,101118.63
2022-11-09T06:26:23.482Z,101116.81
2022-11-09T06:28:51.511Z,101119.38
2022-11-09T06:31:21.011Z,101129.34
2022-11-09T06:33:49.181Z,101125.75
2022-11-09T06:36:17.681Z,101116.88
2022-11-09T06:38:50.532Z,101129.03
2022-11-09T06:41:19.745Z,101132.97
2022-11-09T06:43:47.894Z,101141.88
2022-11-09T06:46:20.888Z,101140.41
2022-11-09T06:48:54.276Z,101130.00
2022-11-09T06:51:23.799Z,101124.13
2022-11-09T06:53:52.030Z,101147.50
2022-11-09T06:56:20.477Z,101149.44
2022-11-09T06:58:48.841Z,101139.56
2022-11-09T07:01:22.189Z,101140.94
2022-11-09T07:03:50.411Z,101146.56
2022-11-09T07:06:20.042Z,101135.47
2022-11-09T07:08:48.191Z,101135.53
2022-11-09T07:11:17.131Z,101134.53
2022-11-09T07:13:52.301Z,101149.56
2022-11-09T07:16:23.746Z,101146.88
2022-11-09T07:18:51.949Z,101135.88
2022-11-09T07:21:20.391Z,101141.69
2022-11-09T07:23:50.040Z,101138.56
2022-11-09T07:26:18.493Z,101140.44
2022-11-09T07:28:46.962Z,101143.13
2022-11-09T07:31:15.548Z,101147.06
2022-11-09T07:33:43.868Z,101146.16
2022-11-09T07:36:16.855Z,101153.41
2022-11-09T07:38:47.941Z,101157.66
2022-11-09T07:41:16.331Z,101158.75
2022-11-09T07:43:44.425Z,101151.66
2022-11-09T07:46:13.431Z,101157.56
2022-11-09T07:48:41.601Z,101162.69
2022-11-09T07:51:10.210Z,101163.22
2022-11-09T07:53:38.963Z,101160.84
2022-11-09T07:56:07.862Z,101157.34
2022-11-09T07:58:37.464Z,101160.44
2022-11-09T08:01:11.293Z,101155.72
2022-11-09T08:03:39.422Z,101154.13
2022-11-09T08:06:08.051Z,101158.97
2022-11-09T08:08:36.211Z,101149.59
2022-11-09T08:11:04.800Z,101138.44
2022-11-09T08:13:33.110Z,101148.66
2022-11-09T08:16:03.559Z,101145.03
2022-11-09T08:18:32.151Z,101136.50
2022-11-09T08:21:05.202Z,101137.78
2022-11-09T08:23:35.189Z,101145.53
2022-11-09T08:26:06.369Z,101153.38
2022-11-09T08:28:35.446Z,101143.78
2022-11-09T08:31:07.738Z,101134.47
2022-11-09T08:33:39.045Z,101144.41
2022-11-09T08:36:13.800Z,101139.03
2022-11-09T08:38:43.138Z,101141.25
2022-11-09T08:41:14.081Z,101145.22
2022-11-09T08:43:44.468Z,101148.03
2022-11-09T08:46:13.260Z,101148.19
2022-11-09T08:48:41.590Z,101155.25
2022-11-09T08:51:09.929Z,101158.13
2022-11-09T08:53:38.229Z,101151.66
2022-11-09T08:56:08.272Z,101155.59
2022-11-09T08:58:37.420Z,101162.84
2022-11-09T09:01:15.374Z,101175.81
2022-11-09T09:03:45.269Z,101173.44
2022-11-09T09:06:13.799Z,101174.22
2022-11-09T09:08:42.051Z,101179.09
2022-11-09T09:11:10.517Z,101173.41
2022-11-09T09:13:43.131Z,101176.13
2022-11-09T09:16:13.938Z,101180.38
2022-11-09T09:18:41.989Z,101188.88
2022-11-09T09:21:12.428Z,101180.81
2022-11-09T09:23:40.547Z,101185.22
2022-11-09T09:26:09.064Z,101185.25
2022-11-09T09:28:38.369Z,101197.19
2022-11-09T09:31:07.689Z,101191.53
2022-11-09T09:33:36.418Z,101186.97
2022-11-09T09:36:06.398Z,101193.13
2022-11-09T09:38:35.036Z,101194.75
2022-11-09T09:41:06.663Z,101185.56
2022-11-09T09:43:43.370Z,101190.63
2022-11-09T09:46:35.849Z,101196.31
2022-11-09T09:49:12.651Z,101189.38
2022-11-09T09:51:59.804Z,101191.72
2022-11-09T09:54:34.116Z,101200.41
2022-11-09T09:57:03.677Z,101202.88
2022-11-09T09:59:43.033Z,101209.91
2022-11-09T10:02:23.854Z,101204.84
2022-11-09T10:04:53.947Z,101200.41
2022-11-09T10:07:37.406Z,101197.28
2022-11-09T10:10:56.210Z,101194.53
2022-11-09T10:13:27.454Z,101194.75
2022-11-09T10:16:22.400Z,101184.59
2022-11-09T10:19:29.106Z,101190.28
2022-11-09T10:22:29.194Z,101188.28
2022-11-09T10:25:23.729Z,101195.06
2022-11-09T10:28:04.303Z,101194.88
2022-11-09T10:30:33.547Z,101185.41
2022-11-09T10:33:21.974Z,101181.78
2022-11-09T10:36:09.779Z,101179.31
2022-11-09T10:38:45.588Z,101170.63
2022-11-09T10:41:39.827Z,101168.88
2022-11-09T10:44:26.052Z,101165.06
2022-11-09T10:47:16.692Z,101155.22
2022-11-09T10:50:26.454Z,101146.78
2022-11-09T10:53:20.405Z,101131.63
2022-11-09T10:56:20.960Z,101133.69
2022-11-09T10:59:29.276Z,101146.38
2022-11-09T11:02:29.179Z,101145.41
2022-11-09T11:05:18.705Z,101142.88
2022-11-09T11:08:31.315Z,101144.75
2022-11-09T11:11:35.681Z,101131.03
2022-11-09T11:14:34.020Z,101132.53
2022-11-09T11:17:26.547Z,101134.72
2022-11-09T11:20:38.134Z,101140.38
2022-11-09T11:23:27.215Z,101152.75
2022-11-09T11:26:57.314Z,101136.38
2022-11-09T11:29:50.933Z,101125.88
2022-11-09T11:32:37.454Z,101124.69
2022-11-09T11:35:40.601Z,101123.50
2022-11-09T11:38:39.207Z,101119.66
2022-11-09T11:41:32.035Z,101120.44
2022-11-09T11:45:39.577Z,101117.38
2022-11-09T11:48:52.448Z,101112.16
2022-11-09T11:51:44.385Z,101103.97
2022-11-09T11:55:06.339Z,101100.50
2022-11-09T11:58:11.408Z,101107.09
2022-11-09T12:01:16.445Z,101104.81
2022-11-09T12:04:21.566Z,101095.81
2022-11-09T12:07:22.889Z,101095.28
2022-11-09T12:10:44.189Z,101099.34
2022-11-09T12:13:57.165Z,101093.41
2022-11-09T12:17:09.295Z,101091.63
2022-11-09T12:20:17.905Z,101092.22
2022-11-09T12:23:17.926Z,101088.50
2022-11-09T12:26:40.338Z,101083.00
2022-11-09T12:29:42.125Z,101081.84
2022-11-09T12:32:42.930Z,101087.16
2022-11-09T12:35:38.414Z,101085.88
2022-11-09T12:38:51.077Z,101086.59
2022-11-09T12:41:40.397Z,101078.63
2022-11-09T12:44:37.936Z,101082.19
2022-11-09T12:47:30.996Z,101083.25
2022-11-09T12:50:20.211Z,101078.94
2022-11-09T12:53:07.536Z,101072.69
2022-11-09T12:56:18.850Z,101068.38
2022-11-09T12:59:46.504Z,101066.78
2022-11-09T13:02:44.601Z,101077.75
2022-11-09T13:05:38.208Z,101074.06
2022-11-09T13:08:30.653Z,101074.81
2022-11-09T13:11:26.169Z,101073.00
2022-11-09T13:14:31.159Z,101082.34
2022-11-09T13:17:24.575Z,101069.09
2022-11-09T13:26:49.036Z,101067.34
2022-11-09T13:29:41.314Z,101060.28
2022-11-09T13:32:31.462Z,101055.00
2022-11-09T13:35:42.689Z,101042.53
2022-11-09T13:38:30.954Z,101040.53
2022-11-09T13:41:32.596Z,101035.38
2022-11-09T13:44:32.547Z,101038.09
2022-11-09T13:47:25.899Z,101035.63
2022-11-09T13:50:19.721Z,101029.09
2022-11-09T13:53:30.047Z,101009.22
2022-11-09T13:56:36.360Z,101021.56
2022-11-09T13:59:44.402Z,101021.91
2022-11-09T14:02:31.600Z,101028.19
2022-11-09T14:05:30.498Z,101017.84
2022-11-09T14:08:28.109Z,101020.53
2022-11-09T14:11:23.332Z,101026.97
2022-11-09T14:14:29.736Z,101023.59
2022-11-09T14:17:19.274Z,101021.91
2022-11-09T14:20:18.901Z,101021.75
2022-11-09T14:23:16.429Z,101020.31
2022-11-09T14:26:18.638Z,101015.50
2022-11-09T14:29:33.515Z,101028.63
2022-11-09T14:32:32.199Z,101031.25
2022-11-09T14:35:45.110Z,101028.97
2022-11-09T14:38:47.838Z,101029.97
2022-11-09T14:41:35.587Z,101027.00
2022-11-09T14:44:35.997Z,101031.47
2022-11-09T14:47:32.126Z,101025.31
2022-11-09T14:50:29.753Z,101019.06
2022-11-09T14:53:31.827Z,101025.44
2022-11-09T14:56:20.810Z,101015.66
2022-11-09T14:59:10.838Z,101019.94
2022-11-09T15:02:06.138Z,101009.19
2022-11-09T15:05:04.520Z,101027.41
2022-11-09T15:07:51.937Z,101028.56
2022-11-09T15:10:39.677Z,101035.53
2022-11-09T15:13:38.954Z,101051.44
2022-11-09T15:16:31.366Z,101039.56
2022-11-09T15:19:37.931Z,101055.72
2022-11-09T15:22:53.846Z,101053.75
2022-11-09T15:25:43.746Z,101052.94
2022-11-09T15:28:32.130Z,101050.69
2022-11-09T15:31:23.068Z,101052.78
2022-11-09T15:34:29.400Z,101055.72
2022-11-09T15:37:31.135Z,101044.41
2022-11-09T15:40:21.399Z,101043.66
2022-11-09T15:43:08.309Z,101036.28
2022-11-09T15:45:57.198Z,101032.59
2022-11-09T15:48:46.294Z,101031.94
2022-11-09T15:51:33.307Z,101042.38
2022-11-09T15:54:21.350Z,101033.63
2022-11-09T15:57:07.890Z,101032.38
2022-11-09T15:59:55.067Z,101033.97
2022-11-09T16:02:42.091Z,101018.81
2022-11-09T16:05:29.263Z,101015.16
2022-11-09T16:08:16.034Z,101028.59
2022-11-09T16:11:08.402Z,101027.22
2022-11-09T16:13:55.532Z,101014.31
2022-11-09T16:16:42.933Z,101019.69
2022-11-09T16:19:29.733Z,101023.94
2022-11-09T16:22:16.950Z,101035.47
2022-11-09T16:25:05.390Z,101031.03
2022-11-09T16:27:53.006Z,101019.97
2022-11-09T16:30:45.514Z,101025.09
2022-11-09T16:33:34.169Z,101025.13
2022-11-09T16:36:24.731Z,101029.38
2022-11-09T16:39:17.493Z,101031.94
2022-11-09T16:42:12.277Z,101036.59
2022-11-09T16:45:14.135Z,101047.94
2022-11-09T16:48:04.644Z,101043.47
2022-11-09T16:50:54.335Z,101044.59
2022-11-09T16:53:41.765Z,101050.88
2022-11-09T16:56:35.099Z,101057.19
2022-11-09T16:59:24.321Z,101060.22
2022-11-09T17:02:13.461Z,101054.75
2022-11-09T17:05:02.066Z,101058.84
2022-11-09T17:07:57.791Z,101054.06
2022-11-09T17:10:47.230Z,101070.84
2022-11-09T17:13:44.874Z,101059.44
2022-11-09T17:16:48.050Z,101062.50
2022-11-09T17:19:56.390Z,101059.00
2022-11-09T17:22:56.902Z,101058.88
2022-11-09T17:26:14.060Z,101069.50
2022-11-09T17:29:17.497Z,101066.59
2022-11-09T17:32:15.040Z,101063.63
2022-11-09T17:35:08.979Z,101065.41
2022-11-09T17:41:05.612Z,101067.38
2022-11-09T17:43:53.591Z,101075.38
2022-11-09T17:46:40.263Z,101079.13
2022-11-09T17:49:27.069Z,101082.91
2022-11-09T17:52:14.055Z,101078.59
2022-11-09T17:55:01.051Z,101096.66
2022-11-09T17:57:47.639Z,101106.72
2022-11-09T18:00:34.571Z,101109.56
2022-11-09T18:03:21.660Z,101103.56
2022-11-09T18:06:19.891Z,101113.22
2022-11-09T18:12:16.593Z,101098.94
2022-11-09T18:15:03.718Z,101091.72
2022-11-09T18:17:50.614Z,101097.75
2022-11-09T18:20:39.412Z,101089.72
2022-11-09T18:23:26.473Z,101090.81
2022-11-09T18:26:14.328Z,101100.34
2022-11-09T18:29:01.174Z,101100.75
2022-11-09T18:31:48.029Z,101097.91
2022-11-09T18:34:34.855Z,101102.47
2022-11-09T18:37:21.485Z,101099.44
2022-11-09T18:40:08.797Z,101103.94
2022-11-09T18:42:55.417Z,101097.34
2022-11-09T18:45:42.227Z,101103.59
2022-11-09T18:48:29.656Z,101102.59
2022-11-09T18:54:03.534Z,101106.16
2022-11-09T18:56:50.397Z,101108.47
2022-11-09T18:59:40.376Z,101107.72
2022-11-09T19:02:28.704Z,101113.50
2022-11-09T19:05:15.166Z,101107.00
2022-11-09T19:08:01.974Z,101100.06
2022-11-09T19:10:48.346Z,101100.53
2022-11-09T19:13:35.089Z,101097.38
2022-11-09T19:16:22.152Z,101099.28
2022-11-09T19:19:16.767Z,101115.69
2022-11-09T19:22:03.310Z,101108.16
2022-11-09T19:24:50.598Z,101117.59
2022-11-09T19:27:37.275Z,101115.78
2022-11-09T19:30:26.100Z,101121.41
2022-11-09T19:33:12.567Z,101122.00
2022-11-09T19:36:27.917Z,101116.81
2022-11-09T19:39:06.579Z,101104.75
2022-11-09T19:41:53.277Z,101105.94
2022-11-09T19:44:39.984Z,101110.69
2022-11-09T19:47:27.167Z,101116.38
2022-11-09T19:50:13.566Z,101113.88
2022-11-09T19:53:00.468Z,101109.78
2022-11-09T19:55:47.228Z,101108.72
2022-11-09T19:58:34.105Z,101109.03
2022-11-09T20:01:20.992Z,101116.44
2022-11-09T20:04:10.696Z,101114.94
2022-11-09T20:06:57.530Z,101116.16
2022-11-09T20:09:44.609Z,101124.53
2022-11-09T20:12:49.465Z,101119.94
2022-11-09T20:15:37.776Z,101125.16
2022-11-09T20:18:25.735Z,101127.03
2022-11-09T20:21:12.593Z,101129.88
2022-11-09T20:23:59.218Z,101129.53
2022-11-09T20:26:46.721Z,101136.06
2022-11-09T20:29:33.149Z,101134.03
2022-11-09T20:32:21.692Z,101132.44
2022-11-09T20:35:09.215Z,101134.53
2022-11-09T20:37:57.064Z,101134.03
2022-11-09T20:40:43.916Z,101135.00
2022-11-09T20:43:31.495Z,101130.56
2022-11-09T20:46:23.320Z,101135.34
2022-11-09T20:49:10.310Z,101139.56
2022-11-09T20:51:57.164Z,101135.81
2022-11-09T20:54:45.339Z,101144.66
2022-11-09T20:57:32.877Z,101147.19
2022-11-09T21:00:24.380Z,101145.88
2022-11-09T21:03:11.852Z,101149.94
2022-11-09T21:06:01.855Z,101151.59
2022-11-09T21:08:53.928Z,101149.28
2022-11-09T21:12:01.015Z,101156.72
2022-11-09T21:14:48.258Z,101163.16
2022-11-09T21:17:36.426Z,101156.72
2022-11-09T21:20:22.752Z,101159.06
2022-11-09T21:23:14.007Z,101161.69
2022-11-09T21:26:19.505Z,101155.69
2022-11-09T21:29:28.833Z,101149.31
2022-11-09T21:32:16.255Z,101151.06
2022-11-09T21:35:04.124Z,101147.13
2022-11-09T21:37:50.905Z,101145.66
2022-11-09T21:40:37.746Z,101145.44
2022-11-09T21:43:24.499Z,101148.66
2022-11-09T21:46:11.680Z,101147.44
2022-11-09T21:48:58.228Z,101146.16
2022-11-09T21:51:47.758Z,101140.50
2022-11-09T21:54:34.638Z,101139.41
2022-11-09T21:57:21.681Z,101146.66
2022-11-09T22:00:09.856Z,101137.03
2022-11-09T22:02:56.915Z,101137.25
2022-11-09T22:05:43.403Z,101126.56
2022-11-09T22:08:30.319Z,101124.81
2022-11-09T22:11:20.439Z,101124.88
2022-11-09T22:14:28.996Z,101124.81
2022-11-09T22:17:15.709Z,101127.19
2022-11-09T22:20:21.070Z,101126.56
2022-11-09T22:23:08.620Z,101121.97
2022-11-09T22:25:55.291Z,101123.69
2022-11-09T22:28:42.679Z,101122.16
2022-11-09T22:31:29.767Z,101123.91
2022-11-09T22:34:16.318Z,101124.06
2022-11-09T22:37:03.091Z,101122.19
2022-11-09T22:39:49.587Z,101122.06
2022-11-09T22:42:36.348Z,101128.34
2022-11-09T22:45:25.459Z,101123.44
2022-11-09T22:48:12.669Z,101124.19
2022-11-09T22:50:59.098Z,101115.84
2022-11-09T22:53:51.528Z,101118.19
2022-11-09T22:56:37.980Z,101121.22
2022-11-09T22:59:24.947Z,101113.53
2022-11-09T23:02:11.388Z,101115.81
2022-11-09T23:04:58.078Z,101116.22
2022-11-09T23:07:44.908Z,101122.94
2022-11-09T23:10:33.645Z,101116.50
2022-11-09T23:13:20.237Z,101120.16
2022-11-09T23:16:10.756Z,101113.53
2022-11-09T23:18:57.259Z,101112.56
2022-11-09T23:21:43.901Z,101120.00
2022-11-09T23:24:49.178Z,101122.19
2022-11-09T23:27:36.160Z,101123.69
2022-11-09T23:30:23.580Z,101120.00
2022-11-09T23:33:12.110Z,101114.56
2022-11-09T23:36:01.500Z,101117.47
2022-11-09T23:38:48.499Z,101113.00
2022-11-09T23:41:35.086Z,101110.22
2022-11-09T23:44:22.115Z,101121.66
2022-11-09T23:47:08.727Z,101120.00
2022-11-09T23:49:55.757Z,101118.81
2022-11-09T23:52:42.040Z,101127.19
2022-11-09T23:55:30.207Z,101125.91
2022-11-09T23:58:17.527Z,101125.16
